createdAt,value
2018-04-16T00:02:10.688Z,97967.39
2018-04-16T00:04:39.409Z,97965.89
2018-04-16T00:07:08.516Z,97970.88
2018-04-16T00:09:37.235Z,97969.61
2018-04-16T00:12:06.019Z,97964.83
2018-04-16T00:14:34.763Z,97971.20
2018-04-16T00:17:04.336Z,97972.30
2018-04-16T00:19:33.533Z,97973.56
2018-04-16T00:22:03.086Z,97966.33
2018-04-16T00:24:32.136Z,97964.58
2018-04-16T00:27:00.820Z,97965.80
2018-04-16T00:29:30.132Z,97965.05
2018-04-16T00:32:04.450Z,97967.26
2018-04-16T00:34:38.697Z,97968.88
2018-04-16T00:37:14.055Z,97968.68
2018-04-16T00:39:48.798Z,97979.66
2018-04-16T00:42:22.972Z,97983.72
2018-04-16T00:44:57.860Z,97985.86
2018-04-16T00:47:32.307Z,97974.60
2018-04-16T00:50:07.012Z,97979.77
2018-04-16T00:52:41.470Z,97975.67
2018-04-16T00:55:15.702Z,97965.17
2018-04-16T00:57:49.931Z,97962.20
2018-04-16T01:00:24.367Z,97962.81
2018-04-16T01:02:58.390Z,97966.76
2018-04-16T01:05:32.830Z,97969.23
2018-04-16T01:08:06.918Z,97981.20
2018-04-16T01:10:42.310Z,97981.16
2018-04-16T01:13:16.851Z,97984.39
2018-04-16T01:15:50.888Z,97988.95
2018-04-16T01:18:25.003Z,97989.86
2018-04-16T01:20:59.613Z,97994.34
2018-04-16T01:23:35.093Z,97991.11
2018-04-16T01:26:09.330Z,98002.72
2018-04-16T01:28:43.273Z,98002.77
2018-04-16T01:31:17.565Z,97997.13
2018-04-16T01:33:52.033Z,97994.89
2018-04-16T01:36:26.012Z,97993.98
2018-04-16T01:39:00.946Z,97998.14
2018-04-16T01:41:35.334Z,97997.05
2018-04-16T01:44:09.982Z,98001.69
2018-04-16T01:46:44.610Z,97997.91
2018-04-16T01:49:18.727Z,98009.69
2018-04-16T01:51:52.869Z,98008.47
2018-04-16T01:54:27.111Z,98014.14
2018-04-16T01:57:01.816Z,98011.12
2018-04-16T01:59:36.694Z,98018.14
2018-04-16T02:02:10.914Z,98016.73
2018-04-16T02:04:45.261Z,98017.45
2018-04-16T02:07:19.570Z,98018.63
2018-04-16T02:09:53.874Z,98023.02
2018-04-16T02:12:28.657Z,98019.37
2018-04-16T02:15:02.889Z,98024.41
2018-04-16T02:17:37.535Z,98017.61
2018-04-16T02:20:12.315Z,98018.12
2018-04-16T02:25:54.280Z,98017.66
2018-04-16T02:28:28.379Z,98019.88
2018-04-16T02:31:03.041Z,98013.67
2018-04-16T02:33:37.285Z,98012.61
2018-04-16T02:36:11.825Z,98014.01
2018-04-16T02:38:46.135Z,98013.13
2018-04-16T02:41:20.375Z,98010.81
2018-04-16T02:43:54.994Z,98022.78
2018-04-16T02:46:29.525Z,98022.59
2018-04-16T02:49:03.847Z,98031.41
2018-04-16T02:51:38.812Z,98032.36
2018-04-16T02:54:13.505Z,98034.00
2018-04-16T02:56:47.602Z,98034.71
2018-04-16T02:59:21.909Z,98033.74
2018-04-16T03:01:56.979Z,98023.55
2018-04-16T03:04:31.210Z,98025.22
2018-04-16T03:07:05.313Z,98026.14
2018-04-16T03:09:39.481Z,98030.84
2018-04-16T03:12:13.804Z,98029.29
2018-04-16T03:14:48.044Z,98032.27
2018-04-16T03:17:22.681Z,98034.01
2018-04-16T03:19:57.009Z,98034.17
2018-04-16T03:22:31.353Z,98037.48
2018-04-16T03:25:05.785Z,98040.37
2018-04-16T03:27:40.623Z,98033.91
2018-04-16T03:30:14.959Z,98029.52
2018-04-16T03:32:49.296Z,98036.09
2018-04-16T03:35:23.412Z,98041.72
2018-04-16T03:37:58.159Z,98035.97
2018-04-16T03:40:32.363Z,98038.00
2018-04-16T03:43:06.662Z,98033.92
2018-04-16T03:45:40.940Z,98036.91
2018-04-16T03:51:18.520Z,98043.81
2018-04-16T03:53:48.912Z,98044.39
2018-04-16T03:56:17.594Z,98044.92
2018-04-16T03:58:46.374Z,98042.75
2018-04-16T04:01:16.022Z,98050.77
2018-04-16T04:03:44.525Z,98053.67
2018-04-16T04:06:14.083Z,98051.27
2018-04-16T04:08:42.580Z,98054.80
2018-04-16T04:11:11.154Z,98052.15
2018-04-16T04:13:40.495Z,98056.81
2018-04-16T04:16:09.425Z,98056.61
2018-04-16T04:18:38.331Z,98058.97
2018-04-16T04:21:07.908Z,98058.11
2018-04-16T04:23:54.389Z,98057.74
2018-04-16T04:26:40.976Z,98062.62
2018-04-16T04:29:27.971Z,98054.11
2018-04-16T04:31:56.593Z,98059.61
2018-04-16T04:34:25.794Z,98062.01
2018-04-16T04:36:54.945Z,98066.00
2018-04-16T04:39:23.851Z,98079.09
2018-04-16T04:41:52.940Z,98082.15
2018-04-16T04:44:21.479Z,98087.98
2018-04-16T04:46:50.172Z,98083.02
2018-04-16T04:49:18.909Z,98092.12
2018-04-16T04:51:47.689Z,98090.91
2018-04-16T04:54:16.564Z,98102.52
2018-04-16T04:56:46.241Z,98095.06
2018-04-16T04:59:15.150Z,98105.91
2018-04-16T05:01:44.059Z,98106.05
2018-04-16T05:04:14.197Z,98112.02
2018-04-16T05:06:43.525Z,98117.48
2018-04-16T05:09:13.034Z,98116.45
2018-04-16T05:11:42.063Z,98116.08
2018-04-16T05:14:10.832Z,98116.47
2018-04-16T05:16:40.118Z,98118.16
2018-04-16T05:19:08.892Z,98120.65
2018-04-16T05:21:37.653Z,98125.27
2018-04-16T05:24:06.506Z,98125.03
2018-04-16T05:26:35.284Z,98131.64
2018-04-16T05:29:04.951Z,98121.80
2018-04-16T05:31:33.713Z,98128.70
2018-04-16T05:34:03.894Z,98124.10
2018-04-16T05:36:32.997Z,98128.38
2018-04-16T05:39:02.193Z,98125.89
2018-04-16T05:41:31.243Z,98132.48
2018-04-16T05:43:59.964Z,98135.68
2018-04-16T05:46:28.885Z,98137.95
2018-04-16T05:48:57.891Z,98140.30
2018-04-16T05:51:26.842Z,98140.50
2018-04-16T05:53:55.510Z,98141.95
2018-04-16T05:56:24.117Z,98143.69
2018-04-16T05:58:52.827Z,98150.83
2018-04-16T06:01:21.627Z,98147.59
2018-04-16T06:03:50.554Z,98158.76
2018-04-16T06:06:19.295Z,98158.81
2018-04-16T06:08:49.036Z,98161.08
2018-04-16T06:11:18.850Z,98167.04
2018-04-16T06:13:47.935Z,98166.85
2018-04-16T06:16:16.637Z,98167.11
2018-04-16T06:18:45.419Z,98171.89
2018-04-16T06:21:15.089Z,98170.30
2018-04-16T06:23:43.955Z,98178.17
2018-04-16T06:26:13.582Z,98174.88
2018-04-16T06:28:43.105Z,98184.77
2018-04-16T06:31:12.647Z,98178.73
2018-04-16T06:33:41.406Z,98172.13
2018-04-16T06:36:10.213Z,98181.05
2018-04-16T06:38:39.891Z,98183.28
2018-04-16T06:41:10.255Z,98185.41
2018-04-16T06:43:39.601Z,98188.30
2018-04-16T06:46:08.496Z,98198.25
2018-04-16T06:48:37.420Z,98194.03
2018-04-16T06:51:06.038Z,98200.89
2018-04-16T06:53:35.058Z,98204.69
2018-04-16T06:56:03.951Z,98202.89
2018-04-16T06:58:32.778Z,98202.08
2018-04-16T07:01:01.788Z,98200.99
2018-04-16T07:03:31.198Z,98196.90
2018-04-16T07:05:59.932Z,98195.64
2018-04-16T07:08:29.111Z,98199.55
2018-04-16T07:10:58.999Z,98204.31
2018-04-16T07:13:27.757Z,98209.41
2018-04-16T07:15:57.001Z,98213.08
2018-04-16T07:18:25.777Z,98216.97
2018-04-16T07:20:54.696Z,98226.94
2018-04-16T07:23:23.505Z,98226.34
2018-04-16T07:25:52.315Z,98228.83
2018-04-16T07:28:21.196Z,98237.18
2018-04-16T07:30:49.971Z,98238.88
2018-04-16T07:33:18.733Z,98230.39
2018-04-16T07:35:47.454Z,98237.67
2018-04-16T07:38:17.551Z,98238.94
2018-04-16T07:40:47.837Z,98249.17
2018-04-16T07:43:17.568Z,98251.48
2018-04-16T07:45:46.242Z,98248.41
2018-04-16T07:48:15.829Z,98249.89
2018-04-16T07:50:44.628Z,98253.33
2018-04-16T07:53:13.433Z,98251.98
2018-04-16T07:55:42.209Z,98245.48
2018-04-16T07:58:12.439Z,98244.75
2018-04-16T08:00:41.959Z,98242.20
2018-04-16T08:03:11.526Z,98242.47
2018-04-16T08:05:40.895Z,98247.59
2018-04-16T08:08:10.534Z,98253.55
2018-04-16T08:10:39.860Z,98253.07
2018-04-16T08:13:09.546Z,98256.20
2018-04-16T08:15:38.381Z,98257.12
2018-04-16T08:18:07.260Z,98261.87
2018-04-16T08:20:36.055Z,98258.92
2018-04-16T08:23:04.923Z,98261.41
2018-04-16T08:25:34.026Z,98252.23
2018-04-16T08:28:03.439Z,98255.10
2018-04-16T08:30:33.053Z,98262.30
2018-04-16T08:33:05.765Z,98260.17
2018-04-16T08:35:39.813Z,98264.28
2018-04-16T08:38:12.954Z,98269.65
2018-04-16T08:40:44.366Z,98268.20
2018-04-16T08:43:13.052Z,98270.67
2018-04-16T08:45:42.369Z,98268.67
2018-04-16T08:48:11.291Z,98276.34
2018-04-16T08:50:39.853Z,98276.23
2018-04-16T08:53:09.294Z,98270.82
2018-04-16T08:55:38.542Z,98272.58
2018-04-16T08:58:07.569Z,98274.05
2018-04-16T09:00:36.710Z,98276.70
2018-04-16T09:03:05.412Z,98279.56
2018-04-16T09:05:34.279Z,98275.08
2018-04-16T09:08:03.095Z,98283.32
2018-04-16T09:10:32.322Z,98276.61
2018-04-16T09:13:01.080Z,98279.98
2018-04-16T09:15:30.617Z,98278.12
2018-04-16T09:18:00.090Z,98275.61
2018-04-16T09:20:30.019Z,98271.06
2018-04-16T09:22:59.342Z,98277.23
2018-04-16T09:25:29.371Z,98280.28
2018-04-16T09:27:58.653Z,98276.36
2018-04-16T09:30:28.376Z,98278.31
2018-04-16T09:32:57.962Z,98277.13
2018-04-16T09:35:27.475Z,98279.11
2018-04-16T09:37:56.278Z,98272.88
2018-04-16T09:40:25.040Z,98275.31
2018-04-16T09:42:53.909Z,98266.26
2018-04-16T09:45:22.753Z,98265.55
2018-04-16T09:47:52.300Z,98260.92
2018-04-16T09:50:22.005Z,98257.54
2018-04-16T09:52:50.761Z,98260.45
2018-04-16T09:55:20.810Z,98258.00
2018-04-16T09:57:50.528Z,98258.58
2018-04-16T10:00:25.433Z,98261.19
2018-04-16T10:02:58.396Z,98256.91
2018-04-16T10:05:27.135Z,98263.81
2018-04-16T10:07:55.873Z,98267.10
2018-04-16T10:10:24.674Z,98269.23
2018-04-16T10:12:53.538Z,98262.48
2018-04-16T10:15:22.217Z,98264.55
2018-04-16T10:17:52.734Z,98263.42
2018-04-16T10:20:22.054Z,98268.92
2018-04-16T10:22:50.971Z,98268.41
2018-04-16T10:25:19.843Z,98264.33
2018-04-16T10:27:48.585Z,98259.02
2018-04-16T10:30:19.165Z,98260.09
2018-04-16T10:32:48.825Z,98260.54
2018-04-16T10:35:17.718Z,98261.77
2018-04-16T10:37:46.473Z,98256.00
2018-04-16T10:40:15.255Z,98253.79
2018-04-16T10:42:44.059Z,98256.30
2018-04-16T10:45:12.769Z,98260.55
2018-04-16T10:47:42.108Z,98254.02
2018-04-16T10:50:11.815Z,98254.31
2018-04-16T10:52:40.880Z,98260.50
2018-04-16T10:55:10.681Z,98255.47
2018-04-16T10:57:39.586Z,98257.20
2018-04-16T11:00:08.480Z,98256.20
2018-04-16T11:02:37.522Z,98259.47
2018-04-16T11:05:06.303Z,98260.30
2018-04-16T11:07:35.426Z,98257.08
2018-04-16T11:10:04.038Z,98253.48
2018-04-16T11:12:34.278Z,98254.83
2018-04-16T11:15:03.153Z,98252.16
2018-04-16T11:17:33.911Z,98247.97
2018-04-16T11:20:03.568Z,98252.67
2018-04-16T11:22:32.642Z,98253.23
2018-04-16T11:25:01.365Z,98241.25
2018-04-16T11:27:32.765Z,98242.89
2018-04-16T11:30:02.025Z,98244.05
2018-04-16T11:32:30.706Z,98247.16
2018-04-16T11:34:59.296Z,98244.28
2018-04-16T11:37:28.598Z,98251.02
2018-04-16T11:40:00.979Z,98256.27
2018-04-16T11:42:30.111Z,98250.67
2018-04-16T11:44:59.895Z,98250.11
2018-04-16T11:47:29.343Z,98250.98
2018-04-16T11:49:58.813Z,98251.84
2018-04-16T11:52:27.893Z,98257.10
2018-04-16T11:54:56.951Z,98250.22
2018-04-16T11:57:25.502Z,98256.02
2018-04-16T11:59:56.290Z,98249.08
2018-04-16T12:02:25.347Z,98249.42
2018-04-16T12:04:54.298Z,98244.45
2018-04-16T12:07:23.254Z,98245.54
2018-04-16T12:09:52.446Z,98248.73
2018-04-16T12:12:21.771Z,98248.91
2018-04-16T12:14:52.017Z,98255.64
2018-04-16T12:17:21.659Z,98247.20
2018-04-16T12:19:50.565Z,98243.98
2018-04-16T12:22:19.546Z,98250.03
2018-04-16T12:24:48.380Z,98249.95
2018-04-16T12:27:17.181Z,98246.16
2018-04-16T12:29:45.906Z,98242.63
2018-04-16T12:32:15.021Z,98239.48
2018-04-16T12:34:44.763Z,98245.20
2018-04-16T12:37:14.008Z,98246.59
2018-04-16T12:39:43.039Z,98236.25
2018-04-16T12:42:11.801Z,98232.20
2018-04-16T12:44:41.253Z,98234.31
2018-04-16T12:47:11.587Z,98237.02
2018-04-16T12:49:41.092Z,98232.31
2018-04-16T12:52:12.871Z,98233.94
2018-04-16T12:54:41.589Z,98227.31
2018-04-16T12:57:10.412Z,98227.36
2018-04-16T12:59:39.331Z,98221.35
2018-04-16T13:02:09.154Z,98218.84
2018-04-16T13:04:38.493Z,98218.31
2018-04-16T13:07:07.637Z,98213.31
2018-04-16T13:09:37.218Z,98212.69
2018-04-16T13:12:06.576Z,98217.28
2018-04-16T13:14:36.262Z,98215.03
2018-04-16T13:17:05.529Z,98213.62
2018-04-16T13:19:34.369Z,98218.36
2018-04-16T13:22:03.746Z,98213.06
2018-04-16T13:24:32.467Z,98211.33
2018-04-16T13:27:01.384Z,98212.56
2018-04-16T13:29:30.251Z,98214.16
2018-04-16T13:31:59.831Z,98213.96
2018-04-16T13:34:30.085Z,98215.28
2018-04-16T13:36:59.027Z,98220.53
2018-04-16T13:39:27.828Z,98211.47
2018-04-16T13:41:56.720Z,98212.88
2018-04-16T13:44:26.802Z,98217.11
2018-04-16T13:46:55.627Z,98214.97
2018-04-16T13:49:24.477Z,98207.67
2018-04-16T13:51:53.966Z,98214.23
2018-04-16T13:54:22.612Z,98207.50
2018-04-16T13:56:52.044Z,98207.64
2018-04-16T13:59:20.654Z,98215.33
2018-04-16T14:01:49.219Z,98215.73
2018-04-16T14:04:18.083Z,98208.34
2018-04-16T14:06:46.921Z,98209.95
2018-04-16T14:09:15.744Z,98209.93
2018-04-16T14:11:44.516Z,98207.18
2018-04-16T14:14:13.987Z,98205.98
2018-04-16T14:16:45.373Z,98210.30
2018-04-16T14:19:15.029Z,98210.67
2018-04-16T14:21:44.324Z,98205.66
2018-04-16T14:24:13.671Z,98198.39
2018-04-16T14:26:42.896Z,98200.76
2018-04-16T14:29:11.800Z,98199.09
2018-04-16T14:31:40.594Z,98204.61
2018-04-16T14:34:10.160Z,98201.98
2018-04-16T14:36:40.198Z,98200.38
2018-04-16T14:39:09.869Z,98195.60
2018-04-16T14:41:40.447Z,98204.31
2018-04-16T14:44:09.650Z,98201.81
2018-04-16T14:46:39.729Z,98200.72
2018-04-16T14:49:09.306Z,98204.88
2018-04-16T14:51:38.354Z,98209.05
2018-04-16T14:54:07.279Z,98202.10
2018-04-16T14:56:36.327Z,98204.82
2018-04-16T14:59:05.333Z,98208.42
2018-04-16T15:01:34.298Z,98207.11
2018-04-16T15:04:03.268Z,98207.50
2018-04-16T15:06:32.260Z,98210.12
2018-04-16T15:09:01.745Z,98214.40
2018-04-16T15:11:31.245Z,98210.65
2018-04-16T15:14:00.207Z,98207.31
2018-04-16T15:16:29.257Z,98210.08
2018-04-16T15:18:58.594Z,98219.17
2018-04-16T15:21:28.583Z,98218.60
2018-04-16T15:23:57.869Z,98213.21
2018-04-16T15:26:28.220Z,98209.51
2018-04-16T15:28:58.138Z,98214.72
2018-04-16T15:31:27.114Z,98209.81
2018-04-16T15:33:56.144Z,98212.22
2018-04-16T15:36:25.685Z,98212.91
2018-04-16T15:38:55.142Z,98221.16
2018-04-16T15:41:25.058Z,98217.53
2018-04-16T15:43:54.866Z,98216.22
2018-04-16T15:46:23.903Z,98229.80
2018-04-16T15:48:53.462Z,98225.90
2018-04-16T15:51:22.545Z,98231.27
2018-04-16T15:53:52.270Z,98228.63
2018-04-16T15:56:21.418Z,98229.43
2018-04-16T15:58:51.431Z,98235.38
2018-04-16T16:01:20.511Z,98236.83
2018-04-16T16:03:50.782Z,98243.67
2018-04-16T16:06:21.170Z,98242.79
2018-04-16T16:08:50.203Z,98244.39
2018-04-16T16:11:19.221Z,98242.52
2018-04-16T16:13:48.221Z,98246.52
2018-04-16T16:16:17.372Z,98251.38
2018-04-16T16:18:46.446Z,98245.88
2018-04-16T16:21:16.068Z,98252.04
2018-04-16T16:23:45.264Z,98254.41
2018-04-16T16:26:15.354Z,98248.68
2018-04-16T16:28:45.301Z,98249.05
2018-04-16T16:31:15.667Z,98247.37
2018-04-16T16:33:46.396Z,98253.77
2018-04-16T16:36:16.976Z,98262.98
2018-04-16T16:38:45.902Z,98266.70
2018-04-16T16:41:15.077Z,98268.56
2018-04-16T16:43:44.063Z,98266.31
2018-04-16T16:46:13.204Z,98268.46
2018-04-16T16:48:42.164Z,98275.48
2018-04-16T16:51:11.214Z,98284.66
2018-04-16T16:53:40.520Z,98290.02
2018-04-16T16:56:09.544Z,98292.39
2018-04-16T16:58:39.002Z,98294.17
2018-04-16T17:01:08.457Z,98291.36
2018-04-16T17:03:37.760Z,98294.22
2018-04-16T17:06:07.353Z,98295.22
2018-04-16T17:08:37.148Z,98289.31
2018-04-16T17:11:07.486Z,98295.18
2018-04-16T17:13:36.596Z,98304.25
2018-04-16T17:16:05.688Z,98315.49
2018-04-16T17:18:36.236Z,98312.08
2018-04-16T17:21:05.476Z,98316.45
2018-04-16T17:23:34.908Z,98322.52
2018-04-16T17:26:05.460Z,98328.73
2018-04-16T17:28:35.444Z,98330.86
2018-04-16T17:31:04.522Z,98342.45
2018-04-16T17:33:34.357Z,98343.63
2018-04-16T17:36:03.553Z,98344.86
2018-04-16T17:38:32.818Z,98349.38
2018-04-16T17:41:02.746Z,98349.88
2018-04-16T17:43:32.341Z,98358.98
2018-04-16T17:46:01.413Z,98360.41
2018-04-16T17:48:30.573Z,98360.91
2018-04-16T17:50:59.567Z,98363.51
2018-04-16T17:53:29.100Z,98378.05
2018-04-16T17:55:59.911Z,98391.50
2018-04-16T17:58:28.934Z,98392.72
2018-04-16T18:00:57.913Z,98405.69
2018-04-16T18:03:27.810Z,98410.35
2018-04-16T18:05:56.933Z,98410.35
2018-04-16T18:08:26.929Z,98414.22
2018-04-16T18:10:55.996Z,98412.55
2018-04-16T18:13:24.989Z,98418.75
2018-04-16T18:15:54.129Z,98423.67
2018-04-16T18:18:23.334Z,98424.47
2018-04-16T18:20:52.914Z,98422.47
2018-04-16T18:23:22.685Z,98426.61
2018-04-16T18:25:51.728Z,98431.09
2018-04-16T18:28:20.919Z,98441.14
2018-04-16T18:30:49.946Z,98441.67
2018-04-16T18:33:18.948Z,98444.96
2018-04-16T18:35:47.988Z,98440.19
2018-04-16T18:38:18.581Z,98441.88
2018-04-16T18:43:21.509Z,98455.00
2018-04-16T18:45:51.926Z,98453.88
2018-04-16T18:48:23.299Z,98466.97
2018-04-16T18:50:52.524Z,98468.72
2018-04-16T18:53:22.516Z,98478.91
2018-04-16T18:55:51.850Z,98493.53
2018-04-16T18:58:21.297Z,98501.20
2018-04-16T19:00:50.184Z,98509.73
2018-04-16T19:03:19.279Z,98512.63
2018-04-16T19:05:48.413Z,98522.30
2018-04-16T19:08:18.884Z,98524.18
2018-04-16T19:10:49.273Z,98527.41
2018-04-16T19:13:18.904Z,98528.72
2018-04-16T19:15:49.217Z,98535.14
2018-04-16T19:18:20.317Z,98539.65
2018-04-16T19:20:55.302Z,98542.20
2018-04-16T19:23:24.819Z,98544.48
2018-04-16T19:25:55.462Z,98543.77
2018-04-16T19:28:26.158Z,98544.64
2018-04-16T19:30:56.136Z,98541.06
2018-04-16T19:33:31.959Z,98550.69
2018-04-16T19:36:02.295Z,98553.92
2018-04-16T19:38:31.613Z,98557.59
2018-04-16T19:41:01.606Z,98565.91
2018-04-16T19:43:30.761Z,98565.35
2018-04-16T19:45:59.986Z,98562.14
2018-04-16T19:48:35.662Z,98568.63
2018-04-16T19:51:05.545Z,98572.92
2018-04-16T19:53:34.638Z,98572.62
2018-04-16T19:56:10.815Z,98577.20
2018-04-16T19:58:39.904Z,98572.18
2018-04-16T20:01:11.609Z,98573.51
2018-04-16T20:03:47.134Z,98580.01
2018-04-16T20:06:17.289Z,98584.19
2018-04-16T20:08:46.934Z,98581.58
2018-04-16T20:11:17.110Z,98581.50
2018-04-16T20:13:46.362Z,98578.59
2018-04-16T20:16:16.263Z,98581.70
2018-04-16T20:18:45.294Z,98583.73
2018-04-16T20:21:15.073Z,98583.18
2018-04-16T20:23:44.130Z,98584.50
2018-04-16T20:26:13.300Z,98585.47
2018-04-16T20:28:42.396Z,98587.73
2018-04-16T20:31:12.594Z,98598.66
2018-04-16T20:33:42.286Z,98591.33
2018-04-16T20:36:12.185Z,98595.66
2018-04-16T20:38:41.207Z,98604.74
2018-04-16T20:41:10.292Z,98603.91
2018-04-16T20:43:39.230Z,98606.25
2018-04-16T20:46:08.166Z,98607.67
2018-04-16T20:48:38.015Z,98618.91
2018-04-16T20:51:07.041Z,98625.64
2018-04-16T20:53:36.192Z,98625.50
2018-04-16T20:56:05.092Z,98627.75
2018-04-16T20:58:34.175Z,98625.02
2018-04-16T21:01:03.688Z,98623.02
2018-04-16T21:03:33.887Z,98619.48
2018-04-16T21:06:02.847Z,98619.38
2018-04-16T21:08:31.772Z,98626.59
2018-04-16T21:11:00.822Z,98628.22
2018-04-16T21:13:29.795Z,98634.32
2018-04-16T21:16:00.377Z,98637.16
2018-04-16T21:18:29.365Z,98637.16
2018-04-16T21:20:58.274Z,98636.48
2018-04-16T21:23:27.891Z,98634.89
2018-04-16T21:25:57.569Z,98640.01
2018-04-16T21:28:27.233Z,98648.14
2018-04-16T21:30:56.799Z,98651.19
2018-04-16T21:33:25.767Z,98655.91
2018-04-16T21:35:54.590Z,98661.25
2018-04-16T21:38:23.187Z,98657.85
2018-04-16T21:40:51.844Z,98656.53
2018-04-16T21:43:20.725Z,98662.72
2018-04-16T21:45:49.497Z,98664.92
2018-04-16T21:48:18.154Z,98676.70
2018-04-16T21:50:46.829Z,98668.87
2018-04-16T21:53:15.522Z,98680.59
2018-04-16T21:55:44.256Z,98670.37
2018-04-16T21:58:13.778Z,98681.22
2018-04-16T22:00:44.174Z,98675.48
2018-04-16T22:03:13.144Z,98675.34
2018-04-16T22:05:42.583Z,98682.59
2018-04-16T22:08:11.453Z,98683.45
2018-04-16T22:10:40.185Z,98695.42
2018-04-16T22:13:09.720Z,98696.53
2018-04-16T22:15:38.665Z,98697.66
2018-04-16T22:18:07.350Z,98698.56
2018-04-16T22:20:36.073Z,98705.47
2018-04-16T22:23:04.745Z,98710.73
2018-04-16T22:25:34.130Z,98708.58
2018-04-16T22:28:02.877Z,98712.95
2018-04-16T22:30:32.747Z,98711.80
2018-04-16T22:33:01.971Z,98711.71
2018-04-16T22:35:31.709Z,98709.91
2018-04-16T22:38:00.331Z,98716.69
2018-04-16T22:40:28.900Z,98717.72
2018-04-16T22:42:57.486Z,98716.47
2018-04-16T22:45:26.772Z,98722.73
2018-04-16T22:47:55.389Z,98727.07
2018-04-16T22:50:24.004Z,98722.09
2018-04-16T22:52:53.322Z,98726.06
2018-04-16T22:55:21.973Z,98720.63
2018-04-16T22:57:50.656Z,98721.23
2018-04-16T23:00:19.381Z,98730.18
2018-04-16T23:02:48.297Z,98732.14
2018-04-16T23:05:17.623Z,98737.06
2018-04-16T23:07:46.683Z,98735.05
2018-04-16T23:10:15.292Z,98738.77
2018-04-16T23:12:43.880Z,98735.15
2018-04-16T23:15:12.401Z,98740.78
2018-04-16T23:17:41.119Z,98749.03
2018-04-16T23:20:10.568Z,98750.34
2018-04-16T23:22:39.918Z,98755.84
2018-04-16T23:25:08.452Z,98764.24
2018-04-16T23:27:37.113Z,98759.73
2018-04-16T23:30:05.768Z,98768.33
2018-04-16T23:32:34.387Z,98763.77
2018-04-16T23:35:04.476Z,98770.58
2018-04-16T23:37:33.424Z,98771.14
2018-04-16T23:40:02.554Z,98769.73
2018-04-16T23:42:31.107Z,98772.44
2018-04-16T23:44:59.773Z,98776.71
2018-04-16T23:47:28.461Z,98778.53
2018-04-16T23:49:57.004Z,98783.78
2018-04-16T23:52:25.566Z,98787.89
2018-04-16T23:54:54.204Z,98789.50
2018-04-16T23:57:23.606Z,98782.47
2018-04-16T23:59:52.186Z,98783.30
